createdAt,value
2023-04-05T00:00:54.518Z,7.75
2023-04-05T00:03:22.352Z,7.70
2023-04-05T00:05:51.059Z,7.64
2023-04-05T00:08:24.445Z,7.59
2023-04-05T00:10:52.304Z,7.52
2023-04-05T00:13:20.464Z,7.49
2023-04-05T00:15:49.175Z,7.48
2023-04-05T00:18:22.746Z,7.46
2023-04-05T00:21:14.609Z,7.49
2023-04-05T00:23:45.219Z,7.41
2023-04-05T00:26:13.401Z,7.35
2023-04-05T00:28:45.178Z,7.33
2023-04-05T00:31:12.771Z,7.34
2023-04-05T00:33:40.961Z,7.21
2023-04-05T00:36:36.388Z,7.20
2023-04-05T00:39:04.146Z,7.18
2023-04-05T00:41:32.253Z,6.97
2023-04-05T00:44:00.062Z,6.71
2023-04-05T00:46:28.480Z,6.50
2023-04-05T00:48:56.777Z,6.35
2023-04-05T00:51:24.665Z,6.24
2023-04-05T00:53:53.098Z,6.17
2023-04-05T00:56:21.914Z,6.12
2023-04-05T00:58:52.267Z,6.12
2023-04-05T01:01:20.635Z,6.10
2023-04-05T01:03:53.781Z,6.14
2023-04-05T01:06:38.622Z,6.27
2023-04-05T01:09:06.690Z,6.34
2023-04-05T01:11:34.275Z,6.39
2023-04-05T01:14:02.367Z,6.43
2023-04-05T01:16:30.453Z,6.50
2023-04-05T01:18:58.537Z,6.51
2023-04-05T01:21:40.696Z,6.55
2023-04-05T01:24:38.768Z,6.58
2023-04-05T01:27:15.173Z,6.55
2023-04-05T01:30:13.989Z,6.60
2023-04-05T01:33:02.663Z,6.67
2023-04-05T01:35:39.744Z,6.67
2023-04-05T01:38:11.620Z,6.70
2023-04-05T01:40:38.831Z,6.71
2023-04-05T01:43:16.030Z,6.73
2023-04-05T01:45:43.520Z,6.74
2023-04-05T01:48:11.099Z,6.76
2023-04-05T01:50:39.000Z,6.78
2023-04-05T01:53:08.248Z,6.81
2023-04-05T01:55:36.194Z,6.88
2023-04-05T01:58:04.084Z,6.89
2023-04-05T02:00:32.113Z,6.91
2023-04-05T02:02:59.918Z,6.93
2023-04-05T02:05:28.118Z,6.95
2023-04-05T02:07:55.833Z,7.00
2023-04-05T02:10:23.652Z,6.98
2023-04-05T02:12:51.683Z,6.98
2023-04-05T02:15:19.386Z,7.04
2023-04-05T02:17:47.479Z,7.03
2023-04-05T02:20:14.714Z,7.00
2023-04-05T02:22:45.616Z,7.03
2023-04-05T02:25:13.758Z,7.01
2023-04-05T02:27:41.615Z,7.03
2023-04-05T02:30:10.696Z,7.02
2023-04-05T02:32:38.680Z,7.06
2023-04-05T02:35:09.405Z,7.10
2023-04-05T02:37:37.430Z,7.04
2023-04-05T02:40:10.745Z,6.99
2023-04-05T02:42:39.628Z,6.94
2023-04-05T02:45:09.533Z,6.91
2023-04-05T02:47:37.774Z,6.87
2023-04-05T02:50:08.411Z,6.82
2023-04-05T02:52:37.599Z,6.77
2023-04-05T02:55:09.443Z,6.73
2023-04-05T02:57:37.214Z,6.68
2023-04-05T03:00:06.370Z,6.66
2023-04-05T03:02:34.716Z,6.61
2023-04-05T03:05:02.480Z,6.61
2023-04-05T03:07:30.637Z,6.58
2023-04-05T03:09:58.688Z,6.63
2023-04-05T03:12:26.764Z,6.59
2023-04-05T03:14:54.858Z,6.67
2023-04-05T03:17:22.821Z,6.70
2023-04-05T03:19:50.487Z,6.67
2023-04-05T03:22:18.665Z,6.69
2023-04-05T03:24:46.719Z,6.72
2023-04-05T03:27:15.142Z,6.73
2023-04-05T03:29:43.750Z,6.78
2023-04-05T03:32:12.335Z,6.78
2023-04-05T03:34:40.272Z,6.79
2023-04-05T03:37:08.290Z,6.78
2023-04-05T03:39:36.654Z,6.74
2023-04-05T03:42:05.395Z,6.71
2023-04-05T03:44:33.823Z,6.79
2023-04-05T03:47:01.908Z,6.83
2023-04-05T03:49:29.467Z,6.89
2023-04-05T03:51:57.219Z,6.89
2023-04-05T03:54:24.951Z,6.85
2023-04-05T03:56:53.082Z,6.87
2023-04-05T03:59:20.949Z,6.88
2023-04-05T04:01:48.631Z,6.80
2023-04-05T04:04:16.329Z,6.79
2023-04-05T04:06:43.856Z,6.87
2023-04-05T04:09:14.565Z,6.89
2023-04-05T04:11:42.671Z,6.93
2023-04-05T04:14:10.452Z,6.96
2023-04-05T04:16:38.574Z,7.01
2023-04-05T04:19:06.788Z,7.04
2023-04-05T04:21:35.939Z,7.10
2023-04-05T04:24:04.100Z,7.09
2023-04-05T04:26:37.998Z,7.10
2023-04-05T04:29:06.844Z,7.11
2023-04-05T04:31:34.382Z,7.14
2023-04-05T04:34:03.446Z,7.12
2023-04-05T04:36:37.100Z,7.13
2023-04-05T04:39:08.173Z,7.13
2023-04-05T04:41:36.072Z,7.12
2023-04-05T04:44:06.679Z,7.12
2023-04-05T04:46:42.924Z,7.16
2023-04-05T04:49:11.315Z,7.17
2023-04-05T04:51:40.253Z,7.17
2023-04-05T04:54:08.539Z,7.16
2023-04-05T04:56:36.293Z,7.12
2023-04-05T04:59:04.316Z,7.16
2023-04-05T05:01:34.021Z,7.17
2023-04-05T05:04:03.496Z,7.18
2023-04-05T05:06:31.413Z,7.23
2023-04-05T05:08:59.554Z,7.25
2023-04-05T05:11:29.042Z,7.30
2023-04-05T05:13:57.012Z,7.34
2023-04-05T05:16:25.314Z,7.37
2023-04-05T05:18:56.037Z,7.36
2023-04-05T05:21:23.964Z,7.40
2023-04-05T05:23:51.925Z,7.48
2023-04-05T05:26:20.120Z,7.51
2023-04-05T05:28:49.686Z,7.55
2023-04-05T05:31:18.179Z,7.57
2023-04-05T05:33:49.553Z,7.66
2023-04-05T05:36:20.207Z,7.67
2023-04-05T05:38:49.196Z,7.72
2023-04-05T05:41:17.528Z,7.76
2023-04-05T05:43:45.228Z,7.85
2023-04-05T05:46:13.760Z,7.97
2023-04-05T05:48:42.142Z,8.00
2023-04-05T05:51:10.100Z,8.09
2023-04-05T05:53:38.152Z,8.14
2023-04-05T05:56:06.581Z,8.24
2023-04-05T05:58:34.279Z,8.27
2023-04-05T06:01:03.731Z,8.35
2023-04-05T06:03:31.683Z,8.40
2023-04-05T06:05:59.757Z,8.51
2023-04-05T06:08:29.849Z,8.60
2023-04-05T06:10:57.914Z,8.71
2023-04-05T06:13:25.656Z,8.76
2023-04-05T06:15:53.701Z,8.82
2023-04-05T06:18:21.763Z,8.91
2023-04-05T06:20:50.701Z,8.94
2023-04-05T06:23:18.876Z,9.06
2023-04-05T06:25:46.500Z,9.11
2023-04-05T06:28:14.593Z,9.17
2023-04-05T06:30:42.761Z,9.26
2023-04-05T06:33:10.589Z,9.21
2023-04-05T06:35:38.578Z,9.26
2023-04-05T06:38:06.619Z,9.28
2023-04-05T06:40:34.281Z,9.28
2023-04-05T06:43:02.395Z,9.36
2023-04-05T06:45:30.412Z,9.37
2023-04-05T06:47:58.289Z,9.35
2023-04-05T06:50:26.120Z,9.35
2023-04-05T06:52:53.923Z,9.36
2023-04-05T06:55:22.115Z,9.35
2023-04-05T06:57:50.314Z,9.28
2023-04-05T07:00:19.040Z,9.24
2023-04-05T07:02:46.918Z,9.26
2023-04-05T07:05:15.196Z,9.37
2023-04-05T07:07:43.365Z,9.47
2023-04-05T07:10:11.475Z,9.56
2023-04-05T07:12:43.124Z,9.65
2023-04-05T07:15:13.513Z,9.74
2023-04-05T07:17:41.228Z,9.83
2023-04-05T07:20:10.973Z,9.86
2023-04-05T07:22:39.006Z,9.86
2023-04-05T07:25:10.481Z,9.91
2023-04-05T07:27:39.956Z,10.02
2023-04-05T07:30:10.840Z,10.05
2023-04-05T07:32:40.009Z,10.14
2023-04-05T07:35:08.633Z,10.21
2023-04-05T07:37:36.284Z,10.30
2023-04-05T07:40:06.489Z,10.36
2023-04-05T07:42:34.214Z,10.44
2023-04-05T07:45:01.893Z,10.54
2023-04-05T07:47:30.093Z,10.57
2023-04-05T07:49:58.084Z,10.67
2023-04-05T07:52:26.290Z,10.76
2023-04-05T07:54:56.893Z,10.91
2023-04-05T07:57:25.068Z,11.00
2023-04-05T07:59:55.203Z,11.13
2023-04-05T08:02:23.300Z,11.11
2023-04-05T08:04:50.856Z,11.10
2023-04-05T08:07:18.682Z,11.21
2023-04-05T08:09:46.850Z,11.44
2023-04-05T08:12:15.393Z,11.54
2023-04-05T08:14:43.507Z,11.56
2023-04-05T08:17:11.538Z,11.56
2023-04-05T08:19:39.497Z,11.61
2023-04-05T08:22:07.589Z,11.63
2023-04-05T08:24:35.814Z,11.69
2023-04-05T08:27:03.491Z,11.69
2023-04-05T08:29:31.475Z,11.66
2023-04-05T08:31:59.228Z,11.69
2023-04-05T08:34:27.239Z,11.73
2023-04-05T08:36:58.783Z,11.76
2023-04-05T08:39:26.945Z,11.84
2023-04-05T08:42:42.220Z,11.95
2023-04-05T08:45:11.478Z,11.96
2023-04-05T08:47:42.012Z,11.99
2023-04-05T08:50:13.921Z,11.95
2023-04-05T08:52:43.236Z,11.87
2023-04-05T08:55:11.603Z,11.80
2023-04-05T08:57:40.585Z,11.92
2023-04-05T09:00:11.969Z,11.95
2023-04-05T09:02:39.483Z,12.07
2023-04-05T09:05:11.214Z,12.21
2023-04-05T09:07:39.394Z,12.42
2023-04-05T09:10:06.815Z,12.60
2023-04-05T09:12:35.079Z,12.56
2023-04-05T09:15:03.519Z,12.53
2023-04-05T09:17:32.425Z,12.32
2023-04-05T09:20:00.189Z,12.28
2023-04-05T09:22:27.501Z,12.46
2023-04-05T09:24:55.077Z,12.54
2023-04-05T09:27:23.130Z,12.73
2023-04-05T09:29:51.380Z,12.88
2023-04-05T09:32:21.524Z,12.89
2023-04-05T09:34:50.286Z,13.02
2023-04-05T09:37:20.119Z,12.87
2023-04-05T09:39:49.649Z,12.55
2023-04-05T09:42:17.627Z,12.31
2023-04-05T09:44:57.844Z,12.59
2023-04-05T09:47:31.394Z,12.78
2023-04-05T09:49:59.494Z,12.94
2023-04-05T09:52:27.087Z,13.04
2023-04-05T09:54:56.753Z,13.10
2023-04-05T09:57:27.612Z,13.23
2023-04-05T09:59:55.838Z,13.62
2023-04-05T10:02:24.122Z,13.95
2023-04-05T10:04:51.751Z,14.18
2023-04-05T10:07:20.532Z,14.26
2023-04-05T10:09:48.792Z,14.25
2023-04-05T10:12:29.703Z,14.56
2023-04-05T10:14:57.955Z,14.53
2023-04-05T10:17:26.417Z,14.43
2023-04-05T10:20:08.899Z,14.53
2023-04-05T10:22:57.184Z,14.77
2023-04-05T10:25:45.388Z,14.76
2023-04-05T10:28:35.350Z,14.90
2023-04-05T10:31:26.987Z,15.03
2023-04-05T10:34:09.359Z,15.02
2023-04-05T10:37:01.050Z,14.76
2023-04-05T10:39:41.248Z,14.08
2023-04-05T10:42:12.685Z,13.85
2023-04-05T10:44:40.332Z,13.87
2023-04-05T10:47:08.075Z,14.28
2023-04-05T10:49:43.834Z,14.72
2023-04-05T10:52:11.312Z,15.25
2023-04-05T10:54:39.100Z,15.99
2023-04-05T10:57:09.948Z,17.41
2023-04-05T10:59:42.220Z,19.16
2023-04-05T11:02:09.757Z,19.97
2023-04-05T11:04:39.533Z,20.63
2023-04-05T11:07:11.707Z,21.38
2023-04-05T11:09:39.329Z,20.85
2023-04-05T11:12:06.629Z,19.01
2023-04-05T11:14:41.935Z,17.70
2023-04-05T11:17:27.344Z,16.97
2023-04-05T11:20:05.647Z,16.16
2023-04-05T11:22:49.308Z,16.35
2023-04-05T11:25:23.792Z,17.40
2023-04-05T11:28:01.803Z,18.40
2023-04-05T11:30:50.878Z,19.32
2023-04-05T11:33:39.310Z,19.87
2023-04-05T11:36:07.947Z,19.74
2023-04-05T11:38:36.287Z,19.54
2023-04-05T11:41:12.362Z,19.58
2023-04-05T11:43:42.127Z,19.60
2023-04-05T11:46:15.553Z,19.69
2023-04-05T11:48:43.293Z,19.70
2023-04-05T11:51:10.948Z,19.09
2023-04-05T11:53:38.681Z,18.38
2023-04-05T11:56:13.848Z,18.06
2023-04-05T11:58:41.926Z,17.99
2023-04-05T12:01:17.006Z,17.74
2023-04-05T12:03:44.715Z,17.28
2023-04-05T12:06:12.476Z,16.78
2023-04-05T12:08:43.389Z,17.19
2023-04-05T12:11:12.610Z,17.54
2023-04-05T12:13:39.853Z,17.22
2023-04-05T12:16:10.878Z,17.03
2023-04-05T12:18:38.281Z,17.79
2023-04-05T12:21:07.843Z,18.70
2023-04-05T12:23:35.668Z,19.59
2023-04-05T12:26:04.187Z,20.32
2023-04-05T12:29:13.204Z,21.13
2023-04-05T12:31:45.301Z,21.66
2023-04-05T12:34:15.538Z,21.94
2023-04-05T12:36:46.308Z,22.28
2023-04-05T12:39:15.472Z,21.93
2023-04-05T12:41:43.478Z,22.05
2023-04-05T12:44:17.767Z,22.28
2023-04-05T12:46:47.854Z,22.62
2023-04-05T12:49:19.166Z,21.89
2023-04-05T12:51:46.780Z,20.75
2023-04-05T12:54:23.623Z,20.24
2023-04-05T12:56:51.710Z,20.43
2023-04-05T12:59:19.255Z,21.08
2023-04-05T13:01:46.976Z,21.69
2023-04-05T13:04:16.504Z,22.42
2023-04-05T13:06:47.653Z,23.12
2023-04-05T13:09:15.895Z,23.02
2023-04-05T13:11:46.206Z,22.06
2023-04-05T13:14:15.018Z,21.25
2023-04-05T13:16:42.868Z,21.22
2023-04-05T13:19:11.983Z,21.27
2023-04-05T13:21:39.874Z,21.53
2023-04-05T13:24:12.301Z,21.33
2023-04-05T13:26:40.845Z,21.98
2023-04-05T13:29:08.802Z,22.81
2023-04-05T13:31:36.793Z,23.35
2023-04-05T13:34:04.252Z,24.09
2023-04-05T13:36:32.137Z,24.71
2023-04-05T13:39:00.004Z,25.16
2023-04-05T13:41:30.862Z,25.52
2023-04-05T13:44:01.542Z,25.72
2023-04-05T13:46:30.121Z,25.77
2023-04-05T13:48:58.249Z,25.64
2023-04-05T13:51:31.402Z,25.79
2023-04-05T13:53:59.818Z,26.22
2023-04-05T13:56:27.968Z,26.59
2023-04-05T13:58:55.733Z,26.66
2023-04-05T14:01:23.696Z,25.37
2023-04-05T14:03:52.165Z,24.55
2023-04-05T14:06:20.346Z,25.02
2023-04-05T14:08:48.432Z,25.06
2023-04-05T14:11:16.117Z,24.67
2023-04-05T14:13:44.194Z,24.51
2023-04-05T14:16:12.447Z,24.43
2023-04-05T14:18:40.473Z,24.55
2023-04-05T14:21:08.797Z,24.43
2023-04-05T14:23:37.096Z,23.88
2023-04-05T14:26:04.520Z,23.89
2023-04-05T14:28:33.074Z,23.83
2023-04-05T14:31:00.642Z,23.90
2023-04-05T14:33:29.324Z,23.89
2023-04-05T14:35:57.533Z,23.98
2023-04-05T14:38:26.654Z,24.29
2023-04-05T14:40:54.988Z,25.13
2023-04-05T14:43:22.776Z,25.53
2023-04-05T14:45:51.001Z,25.97
2023-04-05T14:48:19.328Z,26.06
2023-04-05T14:50:47.450Z,26.31
2023-04-05T14:53:16.240Z,26.43
2023-04-05T14:55:44.416Z,26.10
2023-04-05T14:58:14.370Z,25.93
2023-04-05T15:00:42.989Z,26.32
2023-04-05T15:03:10.868Z,26.10
2023-04-05T15:05:39.029Z,25.50
2023-04-05T15:08:06.844Z,24.65
2023-04-05T15:10:34.510Z,23.48
2023-04-05T15:13:02.659Z,22.40
2023-04-05T15:15:31.359Z,21.67
2023-04-05T15:17:59.668Z,20.86
2023-04-05T15:20:30.941Z,20.58
2023-04-05T15:22:59.221Z,20.67
2023-04-05T15:25:26.867Z,20.76
2023-04-05T15:27:55.501Z,20.83
2023-04-05T15:30:23.850Z,20.47
2023-04-05T15:32:53.999Z,20.30
2023-04-05T15:35:21.969Z,20.46
2023-04-05T15:37:50.722Z,20.61
2023-04-05T15:40:18.851Z,20.89
2023-04-05T15:42:46.368Z,21.36
2023-04-05T15:45:13.984Z,22.30
2023-04-05T15:47:42.148Z,22.76
2023-04-05T15:50:10.429Z,22.93
2023-04-05T15:52:38.060Z,23.01
2023-04-05T15:55:07.718Z,22.88
2023-04-05T15:57:35.655Z,22.97
2023-04-05T16:00:03.965Z,22.90
2023-04-05T16:02:31.617Z,22.72
2023-04-05T16:04:59.863Z,22.18
2023-04-05T16:07:28.905Z,21.51
2023-04-05T16:09:56.716Z,20.85
2023-04-05T16:12:24.522Z,20.54
2023-04-05T16:14:57.022Z,20.19
2023-04-05T16:17:25.666Z,19.79
2023-04-05T16:19:55.607Z,19.29
2023-04-05T16:22:25.100Z,18.57
2023-04-05T16:24:54.780Z,18.02
2023-04-05T16:27:23.011Z,17.08
2023-04-05T16:29:51.280Z,16.90
2023-04-05T16:32:19.640Z,17.09
2023-04-05T16:34:47.293Z,17.11
2023-04-05T16:37:15.045Z,17.33
2023-04-05T16:39:42.835Z,17.36
2023-04-05T16:42:10.690Z,17.58
2023-04-05T16:44:38.839Z,17.97
2023-04-05T16:47:07.214Z,18.45
2023-04-05T16:49:37.662Z,18.93
2023-04-05T16:52:05.488Z,19.34
2023-04-05T16:54:33.543Z,19.42
2023-04-05T16:57:01.263Z,18.62
2023-04-05T16:59:29.266Z,18.06
2023-04-05T17:01:57.537Z,17.85
2023-04-05T17:04:25.569Z,17.46
2023-04-05T17:06:53.360Z,16.85
2023-04-05T17:09:23.194Z,16.23
2023-04-05T17:11:51.384Z,15.62
2023-04-05T17:14:20.079Z,15.23
2023-04-05T17:16:48.579Z,14.96
2023-04-05T17:19:17.385Z,14.78
2023-04-05T17:21:47.419Z,14.57
2023-04-05T17:24:17.353Z,14.40
2023-04-05T17:26:44.783Z,14.27
2023-04-05T17:29:19.674Z,14.10
2023-04-05T17:31:47.429Z,13.97
2023-04-05T17:34:16.836Z,13.79
2023-04-05T17:36:44.154Z,13.67
2023-04-05T17:39:12.259Z,13.59
2023-04-05T17:41:40.249Z,13.36
2023-04-05T17:44:08.058Z,13.14
2023-04-05T17:46:42.735Z,12.95
2023-04-05T17:49:14.351Z,12.80
2023-04-05T17:51:41.997Z,12.65
2023-04-05T17:54:12.366Z,12.53
2023-04-05T17:56:40.159Z,12.50
2023-04-05T17:59:08.230Z,12.40
2023-04-05T18:01:38.001Z,12.33
2023-04-05T18:04:06.898Z,12.21
2023-04-05T18:06:35.398Z,12.13
2023-04-05T18:09:08.684Z,12.05
2023-04-05T18:11:36.695Z,11.96
2023-04-05T18:14:05.458Z,11.88
2023-04-05T18:16:33.917Z,11.81
2023-04-05T18:19:02.411Z,11.79
2023-04-05T18:21:31.068Z,11.74
2023-04-05T18:23:58.946Z,11.65
2023-04-05T18:26:30.549Z,11.63
2023-04-05T18:29:00.231Z,11.58
2023-04-05T18:31:29.109Z,11.50
2023-04-05T18:33:57.294Z,11.45
2023-04-05T18:36:27.984Z,11.43
2023-04-05T18:38:58.032Z,11.39
2023-04-05T18:41:26.777Z,11.32
2023-04-05T18:43:55.238Z,11.21
2023-04-05T18:46:23.729Z,11.23
2023-04-05T18:48:54.859Z,11.11
2023-04-05T18:51:22.631Z,11.02
2023-04-05T18:53:49.640Z,10.97
2023-04-05T18:56:17.579Z,10.93
2023-04-05T18:58:45.697Z,10.83
2023-04-05T19:01:16.138Z,10.76
2023-04-05T19:03:45.240Z,10.74
2023-04-05T19:06:12.690Z,10.63
2023-04-05T19:08:40.304Z,10.50
2023-04-05T19:11:08.233Z,10.47
2023-04-05T19:13:36.017Z,10.35
2023-04-05T19:16:03.282Z,10.35
2023-04-05T19:18:31.018Z,10.36
2023-04-05T19:21:21.283Z,10.40
2023-04-05T19:23:49.901Z,10.32
2023-04-05T19:26:20.653Z,10.26
2023-04-05T19:28:49.837Z,10.25
2023-04-05T19:31:17.592Z,10.16
2023-04-05T19:33:45.406Z,10.06
2023-04-05T19:36:13.541Z,9.93
2023-04-05T19:38:40.826Z,9.66
2023-04-05T19:41:09.073Z,9.54
2023-04-05T19:43:37.006Z,9.50
2023-04-05T19:46:04.808Z,9.38
2023-04-05T19:48:39.814Z,9.20
2023-04-05T19:51:08.876Z,9.16
2023-04-05T19:53:38.848Z,9.17
2023-04-05T19:56:09.904Z,9.16
2023-04-05T19:58:37.572Z,9.07
2023-04-05T20:01:05.976Z,9.04
2023-04-05T20:03:40.566Z,9.00
2023-04-05T20:06:17.176Z,9.05
2023-04-05T20:08:48.243Z,9.10
2023-04-05T20:11:45.103Z,9.13
2023-04-05T20:14:12.985Z,9.12
2023-04-05T20:16:41.035Z,9.12
2023-04-05T20:19:09.705Z,9.12
2023-04-05T20:21:40.855Z,9.07
2023-04-05T20:24:09.212Z,9.03
2023-04-05T20:26:37.052Z,8.99
2023-04-05T20:29:07.722Z,8.95
2023-04-05T20:31:39.150Z,8.98
2023-04-05T20:34:09.703Z,8.89
2023-04-05T20:36:39.078Z,8.86
2023-04-05T20:39:08.062Z,8.83
2023-04-05T20:41:36.369Z,8.77
2023-04-05T20:44:04.525Z,8.69
2023-04-05T20:46:32.548Z,8.66
2023-04-05T20:49:03.777Z,8.66
2023-04-05T20:51:31.811Z,8.56
2023-04-05T20:53:59.380Z,8.52
2023-04-05T20:56:27.279Z,8.46
2023-04-05T20:58:55.928Z,8.45
2023-04-05T21:01:24.143Z,8.40
2023-04-05T21:03:53.411Z,8.35
2023-04-05T21:06:21.732Z,8.33
2023-04-05T21:08:49.496Z,8.33
2023-04-05T21:11:17.664Z,8.34
2023-04-05T21:13:45.686Z,8.30
2023-04-05T21:16:13.862Z,8.31
2023-04-05T21:18:41.615Z,8.33
2023-04-05T21:21:09.289Z,8.29
2023-04-05T21:23:37.602Z,8.32
2023-04-05T21:26:06.197Z,8.32
2023-04-05T21:28:34.043Z,8.33
2023-04-05T21:31:02.194Z,8.29
2023-04-05T21:33:30.644Z,8.28
2023-04-05T21:35:58.871Z,8.22
2023-04-05T21:38:27.242Z,8.14
2023-04-05T21:40:55.723Z,8.09
2023-04-05T21:43:26.308Z,7.97
2023-04-05T21:45:54.024Z,7.77
2023-04-05T21:48:21.729Z,7.60
2023-04-05T21:50:49.500Z,7.55
2023-04-05T21:53:17.195Z,7.59
2023-04-05T21:55:45.509Z,7.64
2023-04-05T21:58:13.567Z,7.63
2023-04-05T22:00:41.813Z,7.58
2023-04-05T22:03:10.207Z,7.49
2023-04-05T22:05:39.054Z,7.47
2023-04-05T22:08:07.584Z,7.45
2023-04-05T22:10:37.177Z,7.48
2023-04-05T22:13:04.840Z,7.43
2023-04-05T22:15:33.199Z,7.32
2023-04-05T22:18:00.975Z,7.21
2023-04-05T22:20:29.277Z,7.20
2023-04-05T22:22:57.130Z,7.20
2023-04-05T22:25:26.446Z,7.22
2023-04-05T22:27:59.858Z,7.18
2023-04-05T22:30:28.598Z,7.24
2023-04-05T22:32:56.943Z,7.26
2023-04-05T22:35:25.275Z,7.23
2023-04-05T22:37:53.044Z,7.27
2023-04-05T22:40:26.998Z,7.34
2023-04-05T22:42:55.019Z,7.37
2023-04-05T22:45:26.760Z,7.44
2023-04-05T22:47:54.356Z,7.44
2023-04-05T22:50:22.573Z,7.47
2023-04-05T22:52:50.768Z,7.50
2023-04-05T22:55:18.929Z,7.52
2023-04-05T22:57:46.630Z,7.50
2023-04-05T23:00:17.573Z,7.43
2023-04-05T23:02:45.710Z,7.39
2023-04-05T23:05:13.880Z,7.37
2023-04-05T23:07:42.025Z,7.37
2023-04-05T23:10:11.780Z,7.40
2023-04-05T23:12:39.755Z,7.40
2023-04-05T23:15:10.192Z,7.41
2023-04-05T23:17:38.640Z,7.40
2023-04-05T23:20:07.584Z,7.38
2023-04-05T23:22:36.172Z,7.38
2023-04-05T23:25:27.215Z,7.42
2023-04-05T23:27:55.426Z,7.39
2023-04-05T23:30:22.591Z,7.44
2023-04-05T23:32:50.551Z,7.46
2023-04-05T23:35:18.639Z,7.41
2023-04-05T23:37:46.792Z,7.43
2023-04-05T23:40:15.106Z,7.39
2023-04-05T23:42:43.170Z,7.37
2023-04-05T23:45:12.564Z,7.32
2023-04-05T23:47:40.608Z,7.26
2023-04-05T23:50:11.239Z,7.22
2023-04-05T23:52:39.368Z,7.20
2023-04-05T23:55:08.692Z,7.19
2023-04-05T23:57:36.444Z,7.16
